createdAt,value
2023-05-02T00:01:48.313Z,10.60
2023-05-02T00:04:17.735Z,1.00
2023-05-02T00:06:46.637Z,1.00
2023-05-02T00:09:15.636Z,1.00
2023-05-02T00:11:43.547Z,1.00
2023-05-02T00:14:11.739Z,5.90
2023-05-02T00:16:39.644Z,2.10
2023-05-02T00:19:08.000Z,7.50
2023-05-02T00:21:37.201Z,6.30
2023-05-02T00:24:05.315Z,1.00
2023-05-02T00:26:33.254Z,3.70
2023-05-02T00:29:01.701Z,5.00
2023-05-02T00:31:29.646Z,1.00
2023-05-02T00:33:57.567Z,1.00
2023-05-02T00:36:26.777Z,1.10
2023-05-02T00:38:55.980Z,1.00
2023-05-02T00:41:23.789Z,9.50
2023-05-02T00:43:51.640Z,8.20
2023-05-02T00:46:19.526Z,18.70
2023-05-02T00:48:47.497Z,14.70
2023-05-02T00:51:15.296Z,8.40
2023-05-02T00:53:43.184Z,16.50
2023-05-02T00:56:12.579Z,15.10
2023-05-02T00:58:41.099Z,26.20
2023-05-02T01:01:26.890Z,16.70
2023-05-02T01:04:02.283Z,12.80
2023-05-02T01:06:37.794Z,32.00
2023-05-02T01:09:14.308Z,23.50
2023-05-02T01:11:45.928Z,13.00
2023-05-02T01:14:15.459Z,16.70
2023-05-02T01:16:44.663Z,17.40
2023-05-02T01:19:18.548Z,13.70
2023-05-02T01:21:46.803Z,13.80
2023-05-02T01:24:19.712Z,16.60
2023-05-02T01:26:52.881Z,14.20
2023-05-02T01:29:23.752Z,11.80
2023-05-02T01:31:52.312Z,7.60
2023-05-02T01:34:21.124Z,7.80
2023-05-02T01:36:49.835Z,8.90
2023-05-02T01:39:20.190Z,3.90
2023-05-02T01:41:50.325Z,10.30
2023-05-02T01:44:19.545Z,13.90
2023-05-02T01:46:49.640Z,17.90
2023-05-02T01:49:17.864Z,25.00
2023-05-02T01:51:51.923Z,19.80
2023-05-02T01:54:21.303Z,17.30
2023-05-02T01:56:49.323Z,37.70
2023-05-02T01:59:19.653Z,23.80
2023-05-02T02:01:49.489Z,16.60
2023-05-02T02:04:17.902Z,12.10
2023-05-02T02:06:47.584Z,21.70
2023-05-02T02:09:15.548Z,17.50
2023-05-02T02:11:45.342Z,19.60
2023-05-02T02:14:15.969Z,23.60
2023-05-02T02:16:45.481Z,36.40
2023-05-02T02:19:15.481Z,27.80
2023-05-02T02:21:44.240Z,32.10
2023-05-02T02:24:12.702Z,34.70
2023-05-02T02:26:40.647Z,26.80
2023-05-02T02:29:08.477Z,28.80
2023-05-02T02:31:38.999Z,32.10
2023-05-02T02:34:07.245Z,28.50
2023-05-02T02:36:38.902Z,37.10
2023-05-02T02:39:13.984Z,32.90
2023-05-02T02:41:45.884Z,21.90
2023-05-02T02:44:19.606Z,21.70
2023-05-02T02:46:50.002Z,29.00
2023-05-02T02:49:25.236Z,23.30
2023-05-02T02:51:59.316Z,26.00
2023-05-02T02:54:33.291Z,27.90
2023-05-02T02:57:03.504Z,27.50
2023-05-02T02:59:33.750Z,47.00
2023-05-02T03:02:05.187Z,34.70
2023-05-02T03:04:33.927Z,35.80
2023-05-02T03:07:03.291Z,36.20
2023-05-02T03:09:41.468Z,22.80
2023-05-02T03:12:09.366Z,26.20
2023-05-02T03:14:37.383Z,30.90
2023-05-02T03:17:05.713Z,36.40
2023-05-02T03:19:33.544Z,30.90
2023-05-02T03:22:01.418Z,26.70
2023-05-02T03:24:30.683Z,23.80
2023-05-02T03:26:59.585Z,17.70
2023-05-02T03:29:28.687Z,19.70
2023-05-02T03:31:56.611Z,19.80
2023-05-02T03:34:24.546Z,20.40
2023-05-02T03:36:52.488Z,22.40
2023-05-02T03:39:20.330Z,24.00
2023-05-02T03:41:49.565Z,23.50
2023-05-02T03:44:17.462Z,25.80
2023-05-02T03:46:45.566Z,29.60
2023-05-02T03:49:13.692Z,29.40
2023-05-02T03:51:41.549Z,28.10
2023-05-02T03:54:09.847Z,32.70
2023-05-02T03:56:38.694Z,25.60
2023-05-02T03:59:08.985Z,29.00
2023-05-02T04:01:36.921Z,27.60
2023-05-02T04:04:05.341Z,29.30
2023-05-02T04:06:33.258Z,31.90
2023-05-02T04:09:01.249Z,31.10
2023-05-02T04:11:29.168Z,31.20
2023-05-02T04:13:57.049Z,36.00
2023-05-02T04:16:26.431Z,34.50
2023-05-02T04:18:54.334Z,56.30
2023-05-02T04:21:22.217Z,44.60
2023-05-02T04:23:50.050Z,38.00
2023-05-02T04:26:17.985Z,51.40
2023-05-02T04:28:45.892Z,52.60
2023-05-02T04:31:13.825Z,54.10
2023-05-02T04:33:43.079Z,58.50
2023-05-02T04:36:10.978Z,56.80
2023-05-02T04:38:38.823Z,52.90
2023-05-02T04:41:08.970Z,52.50
2023-05-02T04:43:37.550Z,53.50
2023-05-02T04:46:05.583Z,49.70
2023-05-02T04:48:33.637Z,44.40
2023-05-02T04:51:02.991Z,41.70
2023-05-02T04:53:30.932Z,38.40
2023-05-02T04:55:58.903Z,35.50
2023-05-02T04:58:26.745Z,34.30
2023-05-02T05:00:55.106Z,37.80
2023-05-02T05:03:23.128Z,39.80
2023-05-02T05:05:51.157Z,39.60
2023-05-02T05:08:20.384Z,43.80
2023-05-02T05:10:48.336Z,33.00
2023-05-02T05:13:16.237Z,27.90
2023-05-02T05:15:44.545Z,24.70
2023-05-02T05:18:12.648Z,28.50
2023-05-02T05:20:40.529Z,27.40
2023-05-02T05:23:08.494Z,21.40
2023-05-02T05:25:37.748Z,24.60
2023-05-02T05:28:05.666Z,20.40
2023-05-02T05:30:33.526Z,21.40
2023-05-02T05:33:01.518Z,21.70
2023-05-02T05:35:29.388Z,22.30
2023-05-02T05:37:57.244Z,19.30
2023-05-02T05:40:25.134Z,22.50
2023-05-02T05:42:54.428Z,26.50
2023-05-02T05:45:22.643Z,29.30
2023-05-02T05:47:50.571Z,26.00
2023-05-02T05:50:18.542Z,25.20
2023-05-02T05:52:46.394Z,23.40
2023-05-02T05:55:14.249Z,23.10
2023-05-02T05:57:42.376Z,21.20
2023-05-02T06:00:12.487Z,20.40
2023-05-02T06:02:40.420Z,18.60
2023-05-02T06:05:08.619Z,19.90
2023-05-02T06:07:36.480Z,21.40
2023-05-02T06:10:04.661Z,23.10
2023-05-02T06:12:32.553Z,18.60
2023-05-02T06:15:00.398Z,22.20
2023-05-02T06:17:29.694Z,20.70
2023-05-02T06:19:58.017Z,19.80
2023-05-02T06:22:26.062Z,19.10
2023-05-02T06:24:53.972Z,21.20
2023-05-02T06:27:21.847Z,17.80
2023-05-02T06:29:51.852Z,17.00
2023-05-02T06:32:19.814Z,18.20
2023-05-02T06:34:49.044Z,19.40
2023-05-02T06:37:16.927Z,21.50
2023-05-02T06:39:44.762Z,19.00
2023-05-02T06:42:13.097Z,18.80
2023-05-02T06:44:40.928Z,17.60
2023-05-02T06:47:08.933Z,17.60
2023-05-02T06:49:36.957Z,18.00
2023-05-02T06:52:06.196Z,17.80
2023-05-02T06:54:34.076Z,17.40
2023-05-02T06:57:02.176Z,19.60
2023-05-02T06:59:30.044Z,18.80
2023-05-02T07:01:57.940Z,18.00
2023-05-02T07:04:26.366Z,18.40
2023-05-02T07:06:54.299Z,24.90
2023-05-02T07:09:23.747Z,21.80
2023-05-02T07:11:51.545Z,23.10
2023-05-02T07:14:19.468Z,23.40
2023-05-02T07:16:47.423Z,22.80
2023-05-02T07:19:15.387Z,18.90
2023-05-02T07:21:43.223Z,17.30
2023-05-02T07:24:11.142Z,30.70
2023-05-02T07:26:41.029Z,28.50
2023-05-02T07:29:09.752Z,28.00
2023-05-02T07:31:37.722Z,23.90
2023-05-02T07:34:05.619Z,34.80
2023-05-02T07:36:33.875Z,40.20
2023-05-02T07:39:01.742Z,48.90
2023-05-02T07:41:29.590Z,54.50
2023-05-02T07:43:58.793Z,53.50
2023-05-02T07:46:26.823Z,51.20
2023-05-02T07:48:55.004Z,61.40
2023-05-02T07:51:22.923Z,59.00
2023-05-02T07:53:53.100Z,60.50
2023-05-02T07:56:21.234Z,58.70
2023-05-02T07:58:50.049Z,59.50
2023-05-02T08:01:19.468Z,59.40
2023-05-02T08:03:48.629Z,60.30
2023-05-02T08:06:16.706Z,58.40
2023-05-02T08:08:44.660Z,61.50
2023-05-02T08:11:12.567Z,59.90
2023-05-02T08:13:40.423Z,63.40
2023-05-02T08:16:08.929Z,63.50
2023-05-02T08:18:38.209Z,64.60
2023-05-02T08:21:06.377Z,64.30
2023-05-02T08:23:34.254Z,61.30
2023-05-02T08:26:02.111Z,58.70
2023-05-02T08:28:30.031Z,58.40
2023-05-02T08:30:58.319Z,56.80
2023-05-02T08:33:26.391Z,56.20
2023-05-02T08:35:55.631Z,56.20
2023-05-02T08:38:23.591Z,53.60
2023-05-02T08:40:51.576Z,55.60
2023-05-02T08:43:19.464Z,53.80
2023-05-02T08:45:47.326Z,54.40
2023-05-02T08:48:16.841Z,55.30
2023-05-02T08:50:48.103Z,54.20
2023-05-02T08:53:18.563Z,54.40
2023-05-02T08:55:46.805Z,54.90
2023-05-02T08:58:15.482Z,54.00
2023-05-02T09:00:46.100Z,55.10
2023-05-02T09:03:22.046Z,53.50
2023-05-02T09:05:53.629Z,53.80
2023-05-02T09:08:25.076Z,54.30
2023-05-02T09:10:52.981Z,54.10
2023-05-02T09:13:34.167Z,54.90
2023-05-02T09:16:02.936Z,55.50
2023-05-02T09:18:31.827Z,52.80
2023-05-02T09:21:00.710Z,53.10
2023-05-02T09:23:37.171Z,52.60
2023-05-02T09:26:15.343Z,52.10
2023-05-02T09:28:44.222Z,53.40
2023-05-02T09:31:12.934Z,51.50
2023-05-02T09:33:41.432Z,52.30
2023-05-02T09:36:10.217Z,53.00
2023-05-02T09:38:39.674Z,51.50
2023-05-02T09:41:07.554Z,51.80
2023-05-02T09:43:35.362Z,52.60
2023-05-02T09:46:04.078Z,52.60
2023-05-02T09:48:33.246Z,51.10
2023-05-02T09:51:01.443Z,51.80
2023-05-02T09:53:29.553Z,52.20
2023-05-02T09:56:02.388Z,50.90
2023-05-02T09:58:31.459Z,47.80
2023-05-02T10:00:59.507Z,48.00
2023-05-02T10:03:28.026Z,51.00
2023-05-02T10:05:56.800Z,52.20
2023-05-02T10:08:26.705Z,50.00
2023-05-02T10:10:55.382Z,48.40
2023-05-02T10:13:27.246Z,46.90
2023-05-02T10:16:00.549Z,48.90
2023-05-02T10:18:29.437Z,48.00
2023-05-02T10:20:58.625Z,46.00
2023-05-02T10:23:30.121Z,46.80
2023-05-02T10:26:00.148Z,47.20
2023-05-02T10:28:31.051Z,48.10
2023-05-02T10:30:59.460Z,46.40
2023-05-02T10:33:27.884Z,44.10
2023-05-02T10:35:55.874Z,45.40
2023-05-02T10:38:24.859Z,43.30
2023-05-02T10:40:56.233Z,42.50
2023-05-02T10:43:28.510Z,41.60
2023-05-02T10:45:57.755Z,44.50
2023-05-02T10:48:26.668Z,44.40
2023-05-02T10:50:55.723Z,39.70
2023-05-02T10:53:26.816Z,41.70
2023-05-02T10:56:22.299Z,42.80
2023-05-02T10:58:51.425Z,45.20
2023-05-02T11:01:37.905Z,43.20
2023-05-02T11:04:06.577Z,47.50
2023-05-02T11:06:35.310Z,45.00
2023-05-02T11:09:20.917Z,47.20
2023-05-02T11:11:49.698Z,46.80
2023-05-02T11:14:32.433Z,45.70
2023-05-02T11:17:11.454Z,45.80
2023-05-02T11:19:58.016Z,47.40
2023-05-02T11:22:34.979Z,45.80
2023-05-02T11:25:03.131Z,45.50
2023-05-02T11:27:43.392Z,44.70
2023-05-02T11:30:12.844Z,45.90
2023-05-02T11:32:59.374Z,47.80
2023-05-02T11:35:31.276Z,48.30
2023-05-02T11:38:00.443Z,48.50
2023-05-02T11:40:28.860Z,46.90
2023-05-02T11:42:57.973Z,47.00
2023-05-02T11:45:34.061Z,44.90
2023-05-02T11:48:02.029Z,46.30
2023-05-02T11:50:31.714Z,46.30
2023-05-02T11:52:59.769Z,47.30
2023-05-02T11:55:28.032Z,47.10
2023-05-02T11:57:56.601Z,47.50
2023-05-02T12:00:28.159Z,47.50
2023-05-02T12:02:56.184Z,46.80
2023-05-02T12:05:29.352Z,48.50
2023-05-02T12:07:58.618Z,48.10
2023-05-02T12:10:36.590Z,49.60
2023-05-02T12:13:08.850Z,48.00
2023-05-02T12:15:38.027Z,46.90
2023-05-02T12:18:06.137Z,48.20
2023-05-02T12:20:34.499Z,49.10
2023-05-02T12:23:06.914Z,49.20
2023-05-02T12:25:37.823Z,49.80
2023-05-02T12:28:05.998Z,47.80
2023-05-02T12:30:34.161Z,49.40
2023-05-02T12:33:02.677Z,49.40
2023-05-02T12:35:31.144Z,49.10
2023-05-02T12:38:10.748Z,49.40
2023-05-02T12:40:40.025Z,51.40
2023-05-02T12:43:10.659Z,51.00
2023-05-02T12:45:38.600Z,50.00
2023-05-02T12:48:20.025Z,50.50
2023-05-02T12:50:47.937Z,49.20
2023-05-02T12:53:17.168Z,52.50
2023-05-02T12:55:45.183Z,50.20
2023-05-02T12:58:14.021Z,51.10
2023-05-02T13:00:43.734Z,48.40
2023-05-02T13:03:13.477Z,49.40
2023-05-02T13:05:41.446Z,48.50
2023-05-02T13:08:09.407Z,49.80
2023-05-02T13:10:38.641Z,47.80
2023-05-02T13:13:07.451Z,50.80
2023-05-02T13:15:35.324Z,48.70
2023-05-02T13:18:03.402Z,48.10
2023-05-02T13:20:31.419Z,49.00
2023-05-02T13:22:59.332Z,49.20
2023-05-02T13:25:27.448Z,50.40
2023-05-02T13:27:56.636Z,51.60
2023-05-02T13:30:24.506Z,51.40
2023-05-02T13:32:52.595Z,52.10
2023-05-02T13:35:20.851Z,53.10
2023-05-02T13:37:48.975Z,51.20
2023-05-02T13:40:16.843Z,54.30
2023-05-02T13:42:45.490Z,51.60
2023-05-02T13:45:14.705Z,53.60
2023-05-02T13:47:42.574Z,51.00
2023-05-02T13:50:10.553Z,53.30
2023-05-02T13:52:38.478Z,53.90
2023-05-02T13:55:07.317Z,51.30
2023-05-02T13:57:35.187Z,52.60
2023-05-02T14:00:04.243Z,51.40
2023-05-02T14:02:34.044Z,51.90
2023-05-02T14:05:01.939Z,52.10
2023-05-02T14:07:30.546Z,51.20
2023-05-02T14:09:58.528Z,52.40
2023-05-02T14:12:26.447Z,51.20
2023-05-02T14:14:54.338Z,50.10
2023-05-02T14:17:25.054Z,52.60
2023-05-02T14:19:54.386Z,50.70
2023-05-02T14:22:22.354Z,50.70
2023-05-02T14:24:50.212Z,50.70
2023-05-02T14:27:18.923Z,51.70
2023-05-02T14:29:46.793Z,52.20
2023-05-02T14:32:14.789Z,53.30
2023-05-02T14:34:42.682Z,53.80
2023-05-02T14:37:11.928Z,53.00
2023-05-02T14:39:40.449Z,54.00
2023-05-02T14:42:08.424Z,50.20
2023-05-02T14:44:36.423Z,52.70
2023-05-02T14:47:04.460Z,52.50
2023-05-02T14:49:32.357Z,53.20
2023-05-02T14:52:00.304Z,50.70
2023-05-02T14:54:30.456Z,51.30
2023-05-02T14:56:59.736Z,52.00
2023-05-02T14:59:29.576Z,51.10
2023-05-02T15:01:57.574Z,51.00
2023-05-02T15:04:27.369Z,51.90
2023-05-02T15:06:56.643Z,49.60
2023-05-02T15:09:26.468Z,49.50
2023-05-02T15:11:55.884Z,51.10
2023-05-02T15:14:23.777Z,51.40
2023-05-02T15:16:51.892Z,50.70
2023-05-02T15:19:19.873Z,49.70
2023-05-02T15:21:48.843Z,51.80
2023-05-02T15:24:16.835Z,51.10
2023-05-02T15:26:45.233Z,49.70
2023-05-02T15:29:14.488Z,49.70
2023-05-02T15:31:42.512Z,50.40
2023-05-02T15:34:10.497Z,49.90
2023-05-02T15:36:38.996Z,49.90
2023-05-02T15:39:09.356Z,50.00
2023-05-02T15:41:37.355Z,50.50
2023-05-02T15:44:05.483Z,50.60
2023-05-02T15:46:34.825Z,51.00
2023-05-02T15:49:02.706Z,51.40
2023-05-02T15:51:30.566Z,49.70
2023-05-02T15:53:58.978Z,50.80
2023-05-02T15:56:26.833Z,50.80
2023-05-02T15:58:54.655Z,52.20
2023-05-02T16:01:24.164Z,52.60
2023-05-02T16:03:53.511Z,51.60
2023-05-02T16:06:21.416Z,51.30
2023-05-02T16:08:49.314Z,51.20
2023-05-02T16:11:17.194Z,51.50
2023-05-02T16:13:45.065Z,49.40
2023-05-02T16:16:13.034Z,49.90
2023-05-02T16:18:41.165Z,50.60
2023-05-02T16:21:11.337Z,49.60
2023-05-02T16:23:39.227Z,49.60
2023-05-02T16:26:07.151Z,49.70
2023-05-02T16:28:35.118Z,49.50
2023-05-02T16:31:06.500Z,49.70
2023-05-02T16:33:34.478Z,49.20
2023-05-02T16:36:02.760Z,49.30
2023-05-02T16:38:32.599Z,48.30
2023-05-02T16:41:03.965Z,47.70
2023-05-02T16:43:31.832Z,46.90
2023-05-02T16:46:00.408Z,47.20
2023-05-02T16:48:28.275Z,46.30
2023-05-02T16:50:56.781Z,46.90
2023-05-02T16:53:24.753Z,46.60
2023-05-02T16:55:54.128Z,46.50
2023-05-02T16:58:22.036Z,46.10
2023-05-02T17:00:50.083Z,48.20
2023-05-02T17:03:18.069Z,47.30
2023-05-02T17:05:45.980Z,46.60
2023-05-02T17:08:13.882Z,46.50
2023-05-02T17:10:41.749Z,47.50
2023-05-02T17:13:12.673Z,45.80
2023-05-02T17:15:41.123Z,46.20
2023-05-02T17:18:09.029Z,47.30
2023-05-02T17:20:37.456Z,48.40
2023-05-02T17:23:05.493Z,47.50
2023-05-02T17:25:33.498Z,47.50
2023-05-02T17:28:01.778Z,48.50
2023-05-02T17:30:32.039Z,47.70
2023-05-02T17:33:00.463Z,46.90
2023-05-02T17:35:28.404Z,48.00
2023-05-02T17:37:56.502Z,48.60
2023-05-02T17:40:26.149Z,45.40
2023-05-02T17:42:55.331Z,46.90
2023-05-02T17:45:23.264Z,45.70
2023-05-02T17:47:52.581Z,42.60
2023-05-02T17:50:20.503Z,32.40
2023-05-02T17:52:48.480Z,24.40
2023-05-02T17:55:18.879Z,23.20
2023-05-02T17:57:47.316Z,1.00
2023-05-02T18:00:15.694Z,1.00
2023-05-02T18:02:43.831Z,1.00
2023-05-02T18:05:13.423Z,1.00
2023-05-02T18:07:41.350Z,1.00
2023-05-02T18:10:09.804Z,1.00
2023-05-02T18:12:38.019Z,1.00
2023-05-02T18:15:06.577Z,1.00
2023-05-02T18:17:34.722Z,1.00
2023-05-02T18:20:04.277Z,1.00
2023-05-02T18:22:34.659Z,7.70
2023-05-02T18:25:02.790Z,8.70
2023-05-02T18:27:31.017Z,20.90
2023-05-02T18:29:58.908Z,10.50
2023-05-02T18:32:26.945Z,44.60
2023-05-02T18:34:54.861Z,39.20
2023-05-02T18:37:30.851Z,39.50
2023-05-02T18:40:00.114Z,46.90
2023-05-02T18:42:28.041Z,28.80
2023-05-02T18:44:56.674Z,32.70
2023-05-02T18:47:24.993Z,38.20
2023-05-02T18:49:56.342Z,41.30
2023-05-02T18:52:24.649Z,40.50
2023-05-02T18:54:52.529Z,43.80
2023-05-02T18:57:21.872Z,46.30
2023-05-02T18:59:49.759Z,40.20
2023-05-02T19:02:17.626Z,44.20
2023-05-02T19:04:45.572Z,43.70
2023-05-02T19:07:13.424Z,53.50
2023-05-02T19:09:41.412Z,56.10
2023-05-02T19:12:09.352Z,55.50
2023-05-02T19:14:39.607Z,58.60
2023-05-02T19:17:07.472Z,51.00
2023-05-02T19:19:35.445Z,59.00
2023-05-02T19:22:03.787Z,58.60
2023-05-02T19:24:32.267Z,67.30
2023-05-02T19:27:00.466Z,70.60
2023-05-02T19:29:28.310Z,60.30
2023-05-02T19:31:57.599Z,73.80
2023-05-02T19:34:25.995Z,72.10
2023-05-02T19:36:53.851Z,76.80
2023-05-02T19:39:21.773Z,77.00
2023-05-02T19:41:50.107Z,76.30
2023-05-02T19:44:18.070Z,77.50
2023-05-02T19:46:46.161Z,80.10
2023-05-02T19:49:15.397Z,76.00
2023-05-02T19:51:43.218Z,79.40
2023-05-02T19:54:11.594Z,76.30
2023-05-02T19:56:39.462Z,75.90
2023-05-02T19:59:07.294Z,76.00
2023-05-02T20:01:35.716Z,73.40
2023-05-02T20:04:03.859Z,78.80
2023-05-02T20:06:33.362Z,72.70
2023-05-02T20:09:01.242Z,75.80
2023-05-02T20:11:30.802Z,74.80
2023-05-02T20:13:58.710Z,78.80
2023-05-02T20:16:26.815Z,81.40
2023-05-02T20:18:54.732Z,79.80
2023-05-02T20:21:22.552Z,78.70
2023-05-02T20:23:51.821Z,80.20
2023-05-02T20:26:20.725Z,79.30
2023-05-02T20:28:48.579Z,82.00
2023-05-02T20:31:16.480Z,81.30
2023-05-02T20:33:45.956Z,84.60
2023-05-02T20:36:14.885Z,80.00
2023-05-02T20:38:44.630Z,81.50
2023-05-02T20:41:13.935Z,79.30
2023-05-02T20:43:44.840Z,74.80
2023-05-02T20:46:13.528Z,75.30
2023-05-02T20:48:43.287Z,77.40
2023-05-02T20:51:11.381Z,80.70
2023-05-02T20:53:39.935Z,82.80
2023-05-02T20:56:08.048Z,85.80
2023-05-02T20:58:37.301Z,83.30
2023-05-02T21:01:05.662Z,82.80
2023-05-02T21:03:36.556Z,83.60
2023-05-02T21:06:04.660Z,85.20
2023-05-02T21:08:32.619Z,86.60
2023-05-02T21:11:01.154Z,91.00
2023-05-02T21:13:29.010Z,91.30
2023-05-02T21:15:58.282Z,89.70
2023-05-02T21:18:26.172Z,92.90
2023-05-02T21:20:54.005Z,92.80
2023-05-02T21:23:21.871Z,92.10
2023-05-02T21:25:49.778Z,93.70
2023-05-02T21:28:17.612Z,92.80
2023-05-02T21:30:45.468Z,91.80
2023-05-02T21:33:17.451Z,91.10
2023-05-02T21:35:46.312Z,90.30
2023-05-02T21:38:14.254Z,90.00
2023-05-02T21:40:42.352Z,93.50
2023-05-02T21:43:10.225Z,93.80
2023-05-02T21:45:44.314Z,93.20
2023-05-02T21:48:12.506Z,93.90
2023-05-02T21:50:41.886Z,93.60
2023-05-02T21:53:10.003Z,95.00
2023-05-02T21:55:39.552Z,94.30
2023-05-02T21:58:07.890Z,94.70
2023-05-02T22:00:36.378Z,94.30
2023-05-02T22:03:07.616Z,93.80
2023-05-02T22:05:38.897Z,94.50
2023-05-02T22:08:08.278Z,92.60
2023-05-02T22:10:37.882Z,92.30
2023-05-02T22:13:05.959Z,92.20
2023-05-02T22:15:33.808Z,92.10
2023-05-02T22:18:01.949Z,93.00
2023-05-02T22:20:29.928Z,92.70
2023-05-02T22:22:57.797Z,93.40
2023-05-02T22:25:27.121Z,91.60
2023-05-02T22:27:55.003Z,92.50
2023-05-02T22:30:23.072Z,92.70
2023-05-02T22:32:51.244Z,91.90
2023-05-02T22:35:19.274Z,91.60
2023-05-02T22:37:47.117Z,91.50
2023-05-02T22:40:15.313Z,90.00
2023-05-02T22:42:44.544Z,91.90
2023-05-02T22:45:13.527Z,92.40
2023-05-02T22:47:41.452Z,91.70
2023-05-02T22:50:11.489Z,92.20
2023-05-02T22:52:39.562Z,92.90
2023-05-02T22:55:09.235Z,92.20
2023-05-02T22:57:37.452Z,92.50
2023-05-02T23:00:09.273Z,93.90
2023-05-02T23:02:37.279Z,94.50
2023-05-02T23:05:06.465Z,92.80
2023-05-02T23:07:34.316Z,92.10
2023-05-02T23:10:02.536Z,91.50
2023-05-02T23:12:30.797Z,91.30
2023-05-02T23:14:58.780Z,91.80
2023-05-02T23:17:27.995Z,91.80
2023-05-02T23:19:55.881Z,91.10
2023-05-02T23:22:23.706Z,90.10
2023-05-02T23:24:51.697Z,88.00
2023-05-02T23:27:19.546Z,90.50
2023-05-02T23:29:49.027Z,91.10
2023-05-02T23:32:16.954Z,91.60
2023-05-02T23:34:46.351Z,92.40
2023-05-02T23:37:14.504Z,90.80
2023-05-02T23:39:42.458Z,92.00
2023-05-02T23:42:10.312Z,90.30
2023-05-02T23:44:38.552Z,92.50
2023-05-02T23:47:06.724Z,93.30
2023-05-02T23:49:34.641Z,92.30
2023-05-02T23:52:05.115Z,94.00
2023-05-02T23:54:34.859Z,93.80
2023-05-02T23:57:03.261Z,94.10
2023-05-02T23:59:31.199Z,93.90
